sensor_id;sensor_type;location;lat;lon;timestamp;pressure;altitude;pressure_sealevel;temperature;humidity
9935;BME280;5006;41.828;23.478;2022-09-01T00:00:44;90306.84;;;16.91;100.00
9935;BME280;5006;41.828;23.478;2022-09-01T00:01:53;90309.22;;;16.89;100.00
9935;BME280;5006;41.828;23.478;2022-09-01T00:02:58;90299.00;;;16.81;100.00
9935;BME280;5006;41.828;23.478;2022-09-01T00:04:06;90304.66;;;16.70;100.00
9935;BME280;5006;41.828;23.478;2022-09-01T00:05:13;90302.59;;;16.58;100.00
9935;BME280;5006;41.828;23.478;2022-09-01T00:06:20;90304.13;;;16.59;100.00
9935;BME280;5006;41.828;23.478;2022-09-01T00:07:27;90297.91;;;16.62;100.00
9935;BME280;5006;41.828;23.478;2022-09-01T00:08:34;90292.56;;;16.59;100.00
9935;BME280;5006;41.828;23.478;2022-09-01T00:09:39;90291.28;;;16.63;100.00
9935;BME280;5006;41.828;23.478;2022-09-01T00:10:45;90294.34;;;16.49;100.00
9935;BME280;5006;41.828;23.478;2022-09-01T00:11:52;90290.59;;;16.59;100.00
9935;BME280;5006;41.828;23.478;2022-09-01T00:12:58;90295.34;;;16.39;100.00
9935;BME280;5006;41.828;23.478;2022-09-01T00:14:04;90296.34;;;16.45;100.00
9935;BME280;5006;41.828;23.478;2022-09-01T00:15:12;90290.59;;;16.43;100.00
9935;BME280;5006;41.828;23.478;2022-09-01T00:16:18;90294.28;;;16.33;100.00
9935;BME280;5006;41.828;23.478;2022-09-01T00:17:25;90291.44;;;16.40;100.00
9935;BME280;5006;41.828;23.478;2022-09-01T00:18:30;90287.66;;;16.34;100.00
9935;BME280;5006;41.828;23.478;2022-09-01T00:19:40;90291.81;;;16.23;100.00
9935;BME280;5006;41.828;23.478;2022-09-01T00:20:45;90287.72;;;16.15;100.00
9935;BME280;5006;41.828;23.478;2022-09-01T00:21:51;90285.69;;;16.54;100.00
9935;BME280;5006;41.828;23.478;2022-09-01T00:22:56;90280.91;;;16.26;100.00
9935;BME280;5006;41.828;23.478;2022-09-01T00:24:04;90285.75;;;16.35;100.00
9935;BME280;5006;41.828;23.478;2022-09-01T00:25:10;90285.25;;;16.40;100.00
9935;BME280;5006;41.828;23.478;2022-09-01T00:26:15;90289.47;;;16.41;100.00
9935;BME280;5006;41.828;23.478;2022-09-01T00:27:20;90291.69;;;16.46;100.00
9935;BME280;5006;41.828;23.478;2022-09-01T00:28:27;90290.78;;;16.36;100.00
9935;BME280;5006;41.828;23.478;2022-09-01T00:29:31;90293.81;;;16.38;100.00
9935;BME280;5006;41.828;23.478;2022-09-01T00:30:37;90292.16;;;16.25;100.00
9935;BME280;5006;41.828;23.478;2022-09-01T00:31:43;90291.97;;;16.35;100.00
9935;BME280;5006;41.828;23.478;2022-09-01T00:32:48;90295.97;;;16.27;100.00
9935;BME280;5006;41.828;23.478;2022-09-01T00:33:54;90288.81;;;16.37;100.00
9935;BME280;5006;41.828;23.478;2022-09-01T00:35:01;90291.97;;;16.35;100.00
9935;BME280;5006;41.828;23.478;2022-09-01T00:36:07;90296.88;;;16.21;100.00
9935;BME280;5006;41.828;23.478;2022-09-01T00:37:12;90285.94;;;16.08;100.00
9935;BME280;5006;41.828;23.478;2022-09-01T00:38:19;90288.56;;;16.12;100.00
9935;BME280;5006;41.828;23.478;2022-09-01T00:39:24;90283.00;;;16.03;100.00
9935;BME280;5006;41.828;23.478;2022-09-01T00:40:29;90279.59;;;15.99;100.00
9935;BME280;5006;41.828;23.478;2022-09-01T00:41:38;90271.94;;;15.78;100.00
9935;BME280;5006;41.828;23.478;2022-09-01T00:42:45;90273.50;;;15.95;100.00
9935;BME280;5006;41.828;23.478;2022-09-01T00:43:53;90270.00;;;15.94;100.00
9935;BME280;5006;41.828;23.478;2022-09-01T00:44:59;90269.59;;;15.96;100.00
9935;BME280;5006;41.828;23.478;2022-09-01T00:46:08;90274.50;;;16.01;100.00
9935;BME280;5006;41.828;23.478;2022-09-01T00:47:14;90270.94;;;15.88;100.00
9935;BME280;5006;41.828;23.478;2022-09-01T00:48:19;90269.56;;;15.80;100.00
9935;BME280;5006;41.828;23.478;2022-09-01T00:49:28;90267.31;;;15.94;100.00
9935;BME280;5006;41.828;23.478;2022-09-01T00:50:36;90271.31;;;16.06;100.00
9935;BME280;5006;41.828;23.478;2022-09-01T00:51:44;90275.22;;;16.05;100.00
9935;BME280;5006;41.828;23.478;2022-09-01T00:52:53;90266.72;;;16.22;100.00
9935;BME280;5006;41.828;23.478;2022-09-01T00:54:00;90282.44;;;16.27;100.00
9935;BME280;5006;41.828;23.478;2022-09-01T00:55:11;90271.09;;;16.16;100.00
9935;BME280;5006;41.828;23.478;2022-09-01T00:56:18;90278.59;;;16.09;100.00
9935;BME280;5006;41.828;23.478;2022-09-01T00:57:23;90279.13;;;16.20;100.00
9935;BME280;5006;41.828;23.478;2022-09-01T00:58:30;90277.13;;;15.88;100.00
9935;BME280;5006;41.828;23.478;2022-09-01T00:59:38;90287.69;;;15.63;100.00
9935;BME280;5006;41.828;23.478;2022-09-01T01:00:48;90284.00;;;15.73;100.00
9935;BME280;5006;41.828;23.478;2022-09-01T01:01:55;90284.03;;;15.89;100.00
9935;BME280;5006;41.828;23.478;2022-09-01T01:03:01;90283.06;;;15.99;100.00
9935;BME280;5006;41.828;23.478;2022-09-01T01:04:08;90285.47;;;16.13;100.00
9935;BME280;5006;41.828;23.478;2022-09-01T01:05:18;90287.78;;;15.95;100.00
9935;BME280;5006;41.828;23.478;2022-09-01T01:06:26;90293.19;;;15.95;100.00
9935;BME280;5006;41.828;23.478;2022-09-01T01:07:36;90288.28;;;15.90;100.00
9935;BME280;5006;41.828;23.478;2022-09-01T01:08:49;90291.56;;;15.82;100.00
9935;BME280;5006;41.828;23.478;2022-09-01T01:10:02;90283.00;;;15.83;100.00
9935;BME280;5006;41.828;23.478;2022-09-01T01:11:11;90286.44;;;15.68;100.00
9935;BME280;5006;41.828;23.478;2022-09-01T01:12:21;90288.56;;;15.76;100.00
9935;BME280;5006;41.828;23.478;2022-09-01T01:13:26;90287.72;;;15.79;100.00
9935;BME280;5006;41.828;23.478;2022-09-01T01:14:34;90282.88;;;15.71;100.00
9935;BME280;5006;41.828;23.478;2022-09-01T01:15:40;90284.63;;;15.81;100.00
9935;BME280;5006;41.828;23.478;2022-09-01T01:16:48;90281.38;;;15.70;100.00
9935;BME280;5006;41.828;23.478;2022-09-01T01:17:55;90277.41;;;15.74;100.00
9935;BME280;5006;41.828;23.478;2022-09-01T01:19:01;90284.47;;;15.68;100.00
9935;BME280;5006;41.828;23.478;2022-09-01T01:20:08;90275.72;;;15.80;100.00
9935;BME280;5006;41.828;23.478;2022-09-01T01:21:38;90272.63;;;15.82;100.00
9935;BME280;5006;41.828;23.478;2022-09-01T01:23:12;90273.75;;;16.00;100.00
9935;BME280;5006;41.828;23.478;2022-09-01T01:24:24;90270.50;;;16.25;100.00
9935;BME280;5006;41.828;23.478;2022-09-01T01:25:32;90273.72;;;16.20;100.00
9935;BME280;5006;41.828;23.478;2022-09-01T01:26:39;90273.81;;;16.32;100.00
9935;BME280;5006;41.828;23.478;2022-09-01T01:27:44;90275.63;;;16.39;100.00
9935;BME280;5006;41.828;23.478;2022-09-01T01:28:50;90274.13;;;16.34;100.00
9935;BME280;5006;41.828;23.478;2022-09-01T01:29:56;90273.97;;;16.25;100.00
9935;BME280;5006;41.828;23.478;2022-09-01T01:31:05;90270.09;;;16.26;100.00
9935;BME280;5006;41.828;23.478;2022-09-01T01:32:15;90278.03;;;16.33;100.00
9935;BME280;5006;41.828;23.478;2022-09-01T01:33:22;90273.47;;;16.30;100.00
9935;BME280;5006;41.828;23.478;2022-09-01T01:34:28;90280.28;;;16.38;100.00
9935;BME280;5006;41.828;23.478;2022-09-01T01:35:35;90278.75;;;16.53;100.00
9935;BME280;5006;41.828;23.478;2022-09-01T01:36:40;90279.72;;;16.27;100.00
9935;BME280;5006;41.828;23.478;2022-09-01T01:37:51;90282.78;;;16.29;100.00
9935;BME280;5006;41.828;23.478;2022-09-01T01:38:59;90294.69;;;16.16;100.00
9935;BME280;5006;41.828;23.478;2022-09-01T01:40:10;90284.47;;;16.23;100.00
9935;BME280;5006;41.828;23.478;2022-09-01T01:41:18;90297.69;;;16.02;100.00
9935;BME280;5006;41.828;23.478;2022-09-01T01:42:25;90288.78;;;15.85;100.00
9935;BME280;5006;41.828;23.478;2022-09-01T01:43:31;90294.78;;;15.93;100.00
9935;BME280;5006;41.828;23.478;2022-09-01T01:44:38;90298.25;;;15.93;100.00
9935;BME280;5006;41.828;23.478;2022-09-01T01:45:44;90295.97;;;15.92;100.00
9935;BME280;5006;41.828;23.478;2022-09-01T01:46:54;90302.44;;;15.78;100.00
9935;BME280;5006;41.828;23.478;2022-09-01T01:48:01;90300.53;;;15.95;100.00
9935;BME280;5006;41.828;23.478;2022-09-01T01:49:13;90306.09;;;15.88;100.00
9935;BME280;5006;41.828;23.478;2022-09-01T01:50:25;90305.75;;;15.86;100.00
9935;BME280;5006;41.828;23.478;2022-09-01T01:51:30;90303.72;;;15.90;100.00
9935;BME280;5006;41.828;23.478;2022-09-01T01:52:38;90305.84;;;15.63;100.00
9935;BME280;5006;41.828;23.478;2022-09-01T01:53:43;90308.91;;;15.65;100.00
9935;BME280;5006;41.828;23.478;2022-09-01T01:54:50;90303.97;;;15.79;100.00
9935;BME280;5006;41.828;23.478;2022-09-01T01:55:56;90298.00;;;15.68;100.00
9935;BME280;5006;41.828;23.478;2022-09-01T01:57:07;90298.50;;;15.63;100.00
9935;BME280;5006;41.828;23.478;2022-09-01T01:58:11;90292.72;;;15.81;100.00
9935;BME280;5006;41.828;23.478;2022-09-01T01:59:18;90298.22;;;15.58;100.00
9935;BME280;5006;41.828;23.478;2022-09-01T02:00:27;90291.41;;;15.50;100.00
9935;BME280;5006;41.828;23.478;2022-09-01T02:01:33;90293.38;;;15.49;100.00
9935;BME280;5006;41.828;23.478;2022-09-01T02:02:38;90288.03;;;15.46;100.00
9935;BME280;5006;41.828;23.478;2022-09-01T02:03:44;90291.78;;;15.71;100.00
9935;BME280;5006;41.828;23.478;2022-09-01T02:04:49;90288.53;;;15.60;100.00
9935;BME280;5006;41.828;23.478;2022-09-01T02:05:55;90284.91;;;15.47;100.00
9935;BME280;5006;41.828;23.478;2022-09-01T02:07:00;90286.91;;;15.63;100.00
9935;BME280;5006;41.828;23.478;2022-09-01T02:08:08;90276.34;;;15.88;100.00
9935;BME280;5006;41.828;23.478;2022-09-01T02:09:16;90279.38;;;15.90;100.00
9935;BME280;5006;41.828;23.478;2022-09-01T02:10:25;90274.22;;;15.79;100.00
9935;BME280;5006;41.828;23.478;2022-09-01T02:11:32;90278.72;;;15.86;100.00
9935;BME280;5006;41.828;23.478;2022-09-01T02:12:41;90273.22;;;15.89;100.00
9935;BME280;5006;41.828;23.478;2022-09-01T02:13:46;90271.25;;;16.09;100.00
9935;BME280;5006;41.828;23.478;2022-09-01T02:14:53;90267.38;;;16.10;100.00
9935;BME280;5006;41.828;23.478;2022-09-01T02:16:02;90269.81;;;16.05;100.00
9935;BME280;5006;41.828;23.478;2022-09-01T02:17:11;90270.75;;;16.30;100.00
9935;BME280;5006;41.828;23.478;2022-09-01T02:18:18;90275.63;;;15.68;100.00
9935;BME280;5006;41.828;23.478;2022-09-01T02:19:24;90274.69;;;15.94;100.00
9935;BME280;5006;41.828;23.478;2022-09-01T02:20:30;90270.41;;;16.12;100.00
9935;BME280;5006;41.828;23.478;2022-09-01T02:21:37;90275.06;;;15.76;100.00
9935;BME280;5006;41.828;23.478;2022-09-01T02:22:57;90274.47;;;15.49;100.00
9935;BME280;5006;41.828;23.478;2022-09-01T02:24:14;90274.22;;;15.79;100.00
9935;BME280;5006;41.828;23.478;2022-09-01T02:25:19;90270.88;;;15.91;100.00
9935;BME280;5006;41.828;23.478;2022-09-01T02:26:33;90271.38;;;15.86;100.00
9935;BME280;5006;41.828;23.478;2022-09-01T02:27:42;90272.47;;;15.89;100.00
9935;BME280;5006;41.828;23.478;2022-09-01T02:28:47;90273.53;;;15.75;100.00
9935;BME280;5006;41.828;23.478;2022-09-01T02:29:53;90285.31;;;15.46;100.00
9935;BME280;5006;41.828;23.478;2022-09-01T02:30:58;90282.72;;;14.77;100.00
9935;BME280;5006;41.828;23.478;2022-09-01T02:32:07;90281.81;;;14.64;100.00
9935;BME280;5006;41.828;23.478;2022-09-01T02:33:15;90281.97;;;14.77;100.00
9935;BME280;5006;41.828;23.478;2022-09-01T02:34:25;90286.81;;;14.85;100.00
9935;BME280;5006;41.828;23.478;2022-09-01T02:35:32;90288.00;;;15.26;100.00
9935;BME280;5006;41.828;23.478;2022-09-01T02:36:38;90285.94;;;15.53;100.00
9935;BME280;5006;41.828;23.478;2022-09-01T02:37:52;90285.03;;;15.40;100.00
9935;BME280;5006;41.828;23.478;2022-09-01T02:39:02;90282.25;;;15.83;100.00
9935;BME280;5006;41.828;23.478;2022-09-01T02:40:09;90282.75;;;15.78;100.00
9935;BME280;5006;41.828;23.478;2022-09-01T02:41:14;90278.09;;;15.78;100.00
9935;BME280;5006;41.828;23.478;2022-09-01T02:42:24;90275.34;;;15.98;100.00
9935;BME280;5006;41.828;23.478;2022-09-01T02:43:30;90281.44;;;16.02;100.00
9935;BME280;5006;41.828;23.478;2022-09-01T02:44:37;90279.47;;;15.86;100.00
9935;BME280;5006;41.828;23.478;2022-09-01T02:45:43;90286.97;;;15.79;100.00
9935;BME280;5006;41.828;23.478;2022-09-01T02:46:50;90281.34;;;15.89;100.00
9935;BME280;5006;41.828;23.478;2022-09-01T02:47:59;90276.47;;;16.00;100.00
9935;BME280;5006;41.828;23.478;2022-09-01T02:49:04;90283.06;;;15.99;100.00
9935;BME280;5006;41.828;23.478;2022-09-01T02:50:13;90279.53;;;16.18;100.00
9935;BME280;5006;41.828;23.478;2022-09-01T02:51:22;90286.31;;;16.26;100.00
9935;BME280;5006;41.828;23.478;2022-09-01T02:52:28;90277.22;;;16.01;100.00
9935;BME280;5006;41.828;23.478;2022-09-01T02:53:40;90282.66;;;16.36;100.00
9935;BME280;5006;41.828;23.478;2022-09-01T02:54:47;90275.84;;;16.28;100.00
9935;BME280;5006;41.828;23.478;2022-09-01T02:55:55;90277.34;;;16.29;100.00
9935;BME280;5006;41.828;23.478;2022-09-01T02:57:03;90274.66;;;16.29;100.00
9935;BME280;5006;41.828;23.478;2022-09-01T02:58:10;90274.66;;;16.29;100.00
9935;BME280;5006;41.828;23.478;2022-09-01T02:59:26;90279.53;;;16.18;100.00
9935;BME280;5006;41.828;23.478;2022-09-01T03:00:36;90276.19;;;15.95;100.00
9935;BME280;5006;41.828;23.478;2022-09-01T03:01:43;90278.09;;;15.78;100.00
9935;BME280;5006;41.828;23.478;2022-09-01T03:02:51;90271.97;;;15.58;100.00
9935;BME280;5006;41.828;23.478;2022-09-01T03:04:01;90268.09;;;15.95;100.00
9935;BME280;5006;41.828;23.478;2022-09-01T03:05:08;90268.94;;;15.92;100.00
9935;BME280;5006;41.828;23.478;2022-09-01T03:06:13;90272.56;;;15.66;100.00
9935;BME280;5006;41.828;23.478;2022-09-01T03:07:22;90272.66;;;15.62;100.00
9935;BME280;5006;41.828;23.478;2022-09-01T03:08:29;90282.00;;;15.38;100.00
9935;BME280;5006;41.828;23.478;2022-09-01T03:09:42;90275.13;;;15.53;100.00
9935;BME280;5006;41.828;23.478;2022-09-01T03:10:47;90281.78;;;15.49;100.00
9935;BME280;5006;41.828;23.478;2022-09-01T03:11:53;90280.28;;;15.83;100.00
9935;BME280;5006;41.828;23.478;2022-09-01T03:13:04;90283.72;;;15.87;100.00
9935;BME280;5006;41.828;23.478;2022-09-01T03:14:11;90284.94;;;16.02;100.00
9935;BME280;5006;41.828;23.478;2022-09-01T03:15:17;90280.03;;;15.97;100.00
9935;BME280;5006;41.828;23.478;2022-09-01T03:16:22;90287.88;;;15.92;100.00
9935;BME280;5006;41.828;23.478;2022-09-01T03:17:28;90296.53;;;15.83;100.00
9935;BME280;5006;41.828;23.478;2022-09-01T03:18:33;90288.63;;;15.92;100.00
9935;BME280;5006;41.828;23.478;2022-09-01T03:19:39;90290.44;;;15.79;100.00
9935;BME280;5006;41.828;23.478;2022-09-01T03:20:46;90292.47;;;15.75;100.00
9935;BME280;5006;41.828;23.478;2022-09-01T03:21:56;90298.25;;;15.93;100.00
9935;BME280;5006;41.828;23.478;2022-09-01T03:23:07;90295.50;;;15.77;100.00
9935;BME280;5006;41.828;23.478;2022-09-01T03:24:15;90300.47;;;15.98;100.00
9935;BME280;5006;41.828;23.478;2022-09-01T03:25:21;90296.25;;;15.97;100.00
9935;BME280;5006;41.828;23.478;2022-09-01T03:26:29;90302.22;;;15.69;100.00
9935;BME280;5006;41.828;23.478;2022-09-01T03:27:35;90298.78;;;15.49;100.00
9935;BME280;5006;41.828;23.478;2022-09-01T03:28:40;90303.91;;;15.63;100.00
9935;BME280;5006;41.828;23.478;2022-09-01T03:29:47;90303.22;;;15.79;100.00
9935;BME280;5006;41.828;23.478;2022-09-01T03:30:55;90297.06;;;15.94;100.00
9935;BME280;5006;41.828;23.478;2022-09-01T03:32:00;90301.19;;;16.18;100.00
9935;BME280;5006;41.828;23.478;2022-09-01T03:33:06;90301.19;;;16.18;100.00
9935;BME280;5006;41.828;23.478;2022-09-01T03:34:11;90302.88;;;16.12;100.00
9935;BME280;5006;41.828;23.478;2022-09-01T03:35:25;90303.72;;;15.90;100.00
9935;BME280;5006;41.828;23.478;2022-09-01T03:36:32;90305.38;;;16.03;100.00
9935;BME280;5006;41.828;23.478;2022-09-01T03:37:38;90301.66;;;15.97;100.00
9935;BME280;5006;41.828;23.478;2022-09-01T03:38:44;90299.63;;;16.37;100.00
9935;BME280;5006;41.828;23.478;2022-09-01T03:39:52;90298.13;;;16.36;100.00
9935;BME280;5006;41.828;23.478;2022-09-01T03:41:00;90299.91;;;16.42;100.00
9935;BME280;5006;41.828;23.478;2022-09-01T03:42:07;90294.41;;;16.62;100.00
9935;BME280;5006;41.828;23.478;2022-09-01T03:43:15;90296.53;;;16.54;100.00
9935;BME280;5006;41.828;23.478;2022-09-01T03:44:22;90292.38;;;16.14;100.00
9935;BME280;5006;41.828;23.478;2022-09-01T03:45:29;90294.00;;;15.57;100.00
9935;BME280;5006;41.828;23.478;2022-09-01T03:46:39;90300.91;;;15.58;100.00
9935;BME280;5006;41.828;23.478;2022-09-01T03:47:45;90295.78;;;15.44;100.00
9935;BME280;5006;41.828;23.478;2022-09-01T03:48:53;90294.66;;;15.80;100.00
9935;BME280;5006;41.828;23.478;2022-09-01T03:49:58;90294.03;;;15.92;100.00
9935;BME280;5006;41.828;23.478;2022-09-01T03:51:04;90297.03;;;16.49;100.00
9935;BME280;5006;41.828;23.478;2022-09-01T03:52:09;90294.50;;;16.23;100.00
9935;BME280;5006;41.828;23.478;2022-09-01T03:53:18;90292.56;;;16.43;100.00
9935;BME280;5006;41.828;23.478;2022-09-01T03:54:23;90288.09;;;16.33;100.00
9935;BME280;5006;41.828;23.478;2022-09-01T03:55:34;90293.25;;;16.11;100.00
9935;BME280;5006;41.828;23.478;2022-09-01T03:56:41;90291.03;;;16.42;100.00
9935;BME280;5006;41.828;23.478;2022-09-01T03:57:54;90293.31;;;16.43;100.00
9935;BME280;5006;41.828;23.478;2022-09-01T03:58:59;90291.25;;;16.47;100.00
9935;BME280;5006;41.828;23.478;2022-09-01T04:00:06;90296.19;;;16.68;100.00
9935;BME280;5006;41.828;23.478;2022-09-01T04:01:20;90289.19;;;16.71;100.00
9935;BME280;5006;41.828;23.478;2022-09-01T04:02:26;90294.00;;;16.79;100.00
9935;BME280;5006;41.828;23.478;2022-09-01T04:03:34;90293.31;;;16.75;100.00
9935;BME280;5006;41.828;23.478;2022-09-01T04:04:43;90286.69;;;16.92;100.00
9935;BME280;5006;41.828;23.478;2022-09-01T04:05:50;90286.38;;;16.90;100.00
9935;BME280;5006;41.828;23.478;2022-09-01T04:06:56;90290.91;;;17.09;100.00
9935;BME280;5006;41.828;23.478;2022-09-01T04:08:03;90287.44;;;17.09;100.00
9935;BME280;5006;41.828;23.478;2022-09-01T04:09:09;90290.44;;;16.82;100.00
9935;BME280;5006;41.828;23.478;2022-09-01T04:10:16;90294.25;;;16.85;100.00
9935;BME280;5006;41.828;23.478;2022-09-01T04:11:21;90295.44;;;16.84;100.00
9935;BME280;5006;41.828;23.478;2022-09-01T04:12:29;90298.56;;;16.82;100.00
9935;BME280;5006;41.828;23.478;2022-09-01T04:13:38;90299.56;;;16.56;100.00
9935;BME280;5006;41.828;23.478;2022-09-01T04:14:43;90297.72;;;16.37;100.00
9935;BME280;5006;41.828;23.478;2022-09-01T04:15:52;90301.88;;;16.22;100.00
9935;BME280;5006;41.828;23.478;2022-09-01T04:16:59;90297.91;;;16.62;100.00
9935;BME280;5006;41.828;23.478;2022-09-01T04:18:22;90302.78;;;16.83;100.00
9935;BME280;5006;41.828;23.478;2022-09-01T04:19:28;90305.34;;;16.74;100.00
9935;BME280;5006;41.828;23.478;2022-09-01T04:20:35;90306.44;;;16.93;100.00
9935;BME280;5006;41.828;23.478;2022-09-01T04:21:53;90307.47;;;16.67;100.00
9935;BME280;5006;41.828;23.478;2022-09-01T04:23:00;90309.38;;;16.82;100.00
9935;BME280;5006;41.828;23.478;2022-09-01T04:24:14;90308.63;;;16.66;100.00
9935;BME280;5006;41.828;23.478;2022-09-01T04:25:21;90310.56;;;16.49;100.00
9935;BME280;5006;41.828;23.478;2022-09-01T04:26:30;90315.47;;;16.38;100.00
9935;BME280;5006;41.828;23.478;2022-09-01T04:27:36;90315.59;;;16.31;100.00
9935;BME280;5006;41.828;23.478;2022-09-01T04:28:46;90320.88;;;16.38;100.00
9935;BME280;5006;41.828;23.478;2022-09-01T04:29:52;90316.50;;;16.25;100.00
9935;BME280;5006;41.828;23.478;2022-09-01T04:31:02;90321.50;;;16.26;100.00
9935;BME280;5006;41.828;23.478;2022-09-01T04:32:11;90318.28;;;16.31;100.00
9935;BME280;5006;41.828;23.478;2022-09-01T04:33:24;90323.06;;;16.43;100.00
9935;BME280;5006;41.828;23.478;2022-09-01T04:34:30;90322.41;;;16.55;100.00
9935;BME280;5006;41.828;23.478;2022-09-01T04:35:41;90315.38;;;17.38;100.00
9935;BME280;5006;41.828;23.478;2022-09-01T04:36:47;90315.63;;;17.43;100.00
9935;BME280;5006;41.828;23.478;2022-09-01T04:37:57;90318.75;;;17.26;100.00
9935;BME280;5006;41.828;23.478;2022-09-01T04:39:03;90313.34;;;17.10;100.00
9935;BME280;5006;41.828;23.478;2022-09-01T04:40:12;90319.19;;;17.24;100.00
9935;BME280;5006;41.828;23.478;2022-09-01T04:41:18;90321.66;;;17.35;100.00
9935;BME280;5006;41.828;23.478;2022-09-01T04:42:25;90313.09;;;17.64;100.00
9935;BME280;5006;41.828;23.478;2022-09-01T04:43:33;90320.47;;;17.64;100.00
9935;BME280;5006;41.828;23.478;2022-09-01T04:44:38;90319.28;;;17.37;100.00
9935;BME280;5006;41.828;23.478;2022-09-01T04:45:45;90330.28;;;17.46;100.00
9935;BME280;5006;41.828;23.478;2022-09-01T04:46:53;90311.19;;;17.49;100.00
9935;BME280;5006;41.828;23.478;2022-09-01T04:48:02;90311.78;;;17.56;100.00
9935;BME280;5006;41.828;23.478;2022-09-01T04:49:08;90308.19;;;17.59;100.00
9935;BME280;5006;41.828;23.478;2022-09-01T04:50:15;90306.22;;;17.60;100.00
9935;BME280;5006;41.828;23.478;2022-09-01T04:51:40;90308.19;;;17.15;100.00
9935;BME280;5006;41.828;23.478;2022-09-01T04:52:47;90309.38;;;17.58;100.00
9935;BME280;5006;41.828;23.478;2022-09-01T04:54:04;90307.97;;;17.82;100.00
9935;BME280;5006;41.828;23.478;2022-09-01T04:55:16;90314.72;;;18.03;100.00
9935;BME280;5006;41.828;23.478;2022-09-01T04:56:21;90314.72;;;18.44;100.00
9935;BME280;5006;41.828;23.478;2022-09-01T04:57:49;90319.44;;;18.27;100.00
9935;BME280;5006;41.828;23.478;2022-09-01T04:58:55;90313.78;;;18.22;100.00
9935;BME280;5006;41.828;23.478;2022-09-01T05:00:00;90318.97;;;18.04;100.00
9935;BME280;5006;41.828;23.478;2022-09-01T05:01:13;90314.19;;;17.67;100.00
9935;BME280;5006;41.828;23.478;2022-09-01T05:02:20;90324.31;;;17.50;100.00
9935;BME280;5006;41.828;23.478;2022-09-01T05:03:32;90322.03;;;17.49;100.00
9935;BME280;5006;41.828;23.478;2022-09-01T05:04:51;90328.97;;;17.78;100.00
9935;BME280;5006;41.828;23.478;2022-09-01T05:05:57;90324.41;;;17.75;100.00
9935;BME280;5006;41.828;23.478;2022-09-01T05:07:07;90325.66;;;18.28;100.00
9935;BME280;5006;41.828;23.478;2022-09-01T05:08:18;90327.19;;;18.41;100.00
9935;BME280;5006;41.828;23.478;2022-09-01T05:09:28;90321.47;;;18.11;100.00
9935;BME280;5006;41.828;23.478;2022-09-01T05:10:56;90330.13;;;18.72;100.00
9935;BME280;5006;41.828;23.478;2022-09-01T05:12:15;90328.19;;;18.72;100.00
9935;BME280;5006;41.828;23.478;2022-09-01T05:13:24;90316.66;;;18.31;100.00
9935;BME280;5006;41.828;23.478;2022-09-01T05:14:31;90321.13;;;18.62;100.00
9935;BME280;5006;41.828;23.478;2022-09-01T05:15:39;90325.13;;;18.33;100.00
9935;BME280;5006;41.828;23.478;2022-09-01T05:16:51;90319.38;;;18.81;100.00
9935;BME280;5006;41.828;23.478;2022-09-01T05:18:00;90317.84;;;18.42;100.00
9935;BME280;5006;41.828;23.478;2022-09-01T05:19:08;90322.56;;;18.26;100.00
9935;BME280;5006;41.828;23.478;2022-09-01T05:20:18;90315.16;;;18.01;100.00
9935;BME280;5006;41.828;23.478;2022-09-01T05:21:24;90317.78;;;17.64;100.00
9935;BME280;5006;41.828;23.478;2022-09-01T05:22:33;90317.72;;;17.80;100.00
9935;BME280;5006;41.828;23.478;2022-09-01T05:23:44;90320.91;;;18.03;100.00
9935;BME280;5006;41.828;23.478;2022-09-01T05:24:50;90314.66;;;18.19;100.00
9935;BME280;5006;41.828;23.478;2022-09-01T05:25:56;90317.84;;;18.42;100.00
9935;BME280;5006;41.828;23.478;2022-09-01T05:27:03;90318.88;;;18.07;100.00
9935;BME280;5006;41.828;23.478;2022-09-01T05:28:13;90313.72;;;18.63;100.00
9935;BME280;5006;41.828;23.478;2022-09-01T05:29:18;90316.66;;;18.68;100.00
9935;BME280;5006;41.828;23.478;2022-09-01T05:30:25;90305.91;;;18.52;100.00
9935;BME280;5006;41.828;23.478;2022-09-01T05:31:32;90320.31;;;17.83;100.00
9935;BME280;5006;41.828;23.478;2022-09-01T05:32:41;90316.34;;;17.59;100.00
9935;BME280;5006;41.828;23.478;2022-09-01T05:33:48;90320.94;;;18.16;100.00
9935;BME280;5006;41.828;23.478;2022-09-01T05:34:55;90316.13;;;18.73;100.00
9935;BME280;5006;41.828;23.478;2022-09-01T05:36:00;90322.41;;;19.08;100.00
9935;BME280;5006;41.828;23.478;2022-09-01T05:37:08;90322.09;;;19.06;100.00
9935;BME280;5006;41.828;23.478;2022-09-01T05:38:16;90323.63;;;18.82;100.00
9935;BME280;5006;41.828;23.478;2022-09-01T05:39:23;90321.06;;;18.25;100.00
9935;BME280;5006;41.828;23.478;2022-09-01T05:40:30;90317.06;;;17.88;100.00
9935;BME280;5006;41.828;23.478;2022-09-01T05:41:35;90317.06;;;17.88;100.00
9935;BME280;5006;41.828;23.478;2022-09-01T05:42:41;90322.81;;;18.31;100.00
9935;BME280;5006;41.828;23.478;2022-09-01T05:43:48;90319.03;;;18.29;100.00
9935;BME280;5006;41.828;23.478;2022-09-01T05:44:55;90320.13;;;18.44;100.00
9935;BME280;5006;41.828;23.478;2022-09-01T05:46:06;90312.41;;;18.30;100.00
9935;BME280;5006;41.828;23.478;2022-09-01T05:47:11;90313.06;;;18.34;100.00
9935;BME280;5006;41.828;23.478;2022-09-01T05:48:19;90308.63;;;18.40;100.00
9935;BME280;5006;41.828;23.478;2022-09-01T05:49:27;90318.41;;;18.37;100.00
9935;BME280;5006;41.828;23.478;2022-09-01T05:50:41;90308.84;;;18.33;100.00
9935;BME280;5006;41.828;23.478;2022-09-01T05:51:49;90315.22;;;18.89;100.00
9935;BME280;5006;41.828;23.478;2022-09-01T05:52:58;90310.56;;;18.77;100.00
9935;BME280;5006;41.828;23.478;2022-09-01T05:54:04;90315.22;;;18.89;100.00
9935;BME280;5006;41.828;23.478;2022-09-01T05:55:12;90306.22;;;18.92;100.00
9935;BME280;5006;41.828;23.478;2022-09-01T05:56:21;90314.34;;;19.04;100.00
9935;BME280;5006;41.828;23.478;2022-09-01T05:57:27;90311.00;;;18.88;100.00
9935;BME280;5006;41.828;23.478;2022-09-01T05:58:36;90306.88;;;18.83;100.00
9935;BME280;5006;41.828;23.478;2022-09-01T05:59:42;90301.66;;;19.01;100.00
9935;BME280;5006;41.828;23.478;2022-09-01T06:00:59;90305.66;;;18.97;100.00